Terminal Aerodrome Forecast
Issued by NWS

Home | Current Version | Previous Version | Text Only | Print | Product List | Glossary On
Versions: 1 2 3 4 5 6 7 8 9 10 11 12 13 14 15 16 17 18 19
000
FTUS43 KDVN 241700
TAFCID
TAF
KCID 241734Z 2418/2518 16008KT P6SM SKC
     FM250900 17005KT P6SM VCSH BKN120
      TEMPO 2511/2513 5SM BR
     FM251600 21009KT P6SM SCT100=

USA.gov is the U.S. government's official web portal to all federal, state and local government web resources and services.